Grinnell, Iowa
Current Conditions -  °F | °C
As of 12:35 PM on Sunday 25 Jan 2015 (Local Time) from KGGI Reporting Station
Overcast Overcast  
Wind Chill: 17°   Ceiling: 1200
Heat Index: 30°   Visibility: 10mi
Dew Point: 26°   Wind: 20mph
Humidity: 88%   Direction: 20°NNE
Pressure: 29.89"   Gusts: 26mph
Location:  41.75°N, 92.73°W
Report Text: KGGI 251835Z AUTO 02017G23KT 10SM OVC012 M01/M03 A2989 RMK AO2 T10131031
Loading
Personal Weather Stations






























Interactive Weather Map New forecast layout! Learn more

10-Day Weather Forecast

Advertisements
Track Severe Weather on mobile